Seaway II — ZMR3466 — position and weather

sailwx.info

Track history (hours):
 
Tides and Currents Weather Stations Pressure Air Temp Water Temp Dewpoint Dewpoint Depression Visibility Wind Speed Wind Dir Waves Ship Positions

Seaway II

Last reported at 2015-May-04 19:34 UTC. Time now 2015-May-04 20:08 UTC.
Position S 36°50' E 174°57'.

Length 37 m.

Type: Passenger vessel. MMSI: 512001026.

Date/timePositionNaut miles runAvg speedWind from/ knotsBaromVisibWave heightAir tempDewpointWater temp
2015-May-04 19:34S 36°50' E 174°57'0 0.1
2015-May-04 17:32S 36°50' E 174°57'4 0.6
2015-May-04 11:19S 36°53' E 174°54'0 0.0
2015-May-04 10:29S 36°53' E 174°54'0 0.0
2015-May-04 08:17S 36°53' E 174°54'0 0.0
2015-May-04 07:23S 36°53' E 174°54'1 1.7
2015-May-04 06:33S 36°51' E 174°54'3 3.0
2015-May-04 05:32S 36°50' E 174°57'3 0.9
2015-May-04 02:10S 36°52' E 174°54'0 0.0
2015-May-03 23:11S 36°52' E 174°54'2 1.3
2015-May-03 21:31S 36°50' E 174°56'2 0.8
2015-May-03 19:33S 36°50' E 174°58'4 3.6
2015-May-03 18:33S 36°51' E 174°53'3 3.4
2015-May-03 17:33S 36°50' E 174°57'4 4.0
2015-May-03 16:32S 36°53' E 174°54'0 0.0
2015-May-03 15:32S 36°53' E 174°54'0 0.0
2015-May-03 14:32S 36°53' E 174°54'0 0.0
2015-May-03 13:32S 36°53' E 174°54'0 0.0
2015-May-03 12:32S 36°53' E 174°54'0 0.0
2015-May-03 11:32S 36°53' E 174°54'0 0.0
2015-May-03 10:32S 36°53' E 174°54'0 0.0
2015-May-03 09:32S 36°53' E 174°54'0 0.0
2015-May-03 08:23S 36°53' E 174°54'0 0.0
2015-May-03 07:29S 36°53' E 174°54'0 0.0
2015-May-03 06:29S 36°53' E 174°54'0 0.0
2015-May-03 05:20S 36°53' E 174°54'4 2.4
2015-May-03 03:33S 36°50' E 174°58'4 4.0
2015-May-03 02:30S 36°53' E 174°54'4 2.0
2015-May-03 00:32S 36°50' E 174°57'4 4.0
2015-May-02 23:32S 36°53' E 174°54'4 2.2
2015-May-02 21:33S 36°50' E 174°58'4 3.9
2015-May-02 20:28S 36°53' E 174°54'2 1.2
2015-May-02 18:33S 36°50' E 174°54'2 2.3
2015-May-02 17:31S 36°53' E 174°54'0 0.0
2015-May-02 16:31S 36°53' E 174°54'0 0.0
2015-May-02 15:25S 36°53' E 174°54'0 0.0
2015-May-02 14:31S 36°53' E 174°54'0 0.0
2015-May-02 13:31S 36°53' E 174°54'0 0.0
2015-May-02 12:31S 36°53' E 174°54'0 0.0
2015-May-02 11:25S 36°53' E 174°54'0 0.0
2015-May-02 10:31S 36°53' E 174°54'0 0.0
2015-May-02 09:31S 36°53' E 174°54'0 0.0
2015-May-02 08:17S 36°53' E 174°54'0 0.0
2015-May-02 07:32S 36°53' E 174°54'1 0.1
2015-May-01 23:14S 36°52' E 174°54'1 0.7
2015-May-01 21:21S 36°51' E 174°54'1 1.4
2015-May-01 20:16S 36°52' E 174°54'2 1.4
2015-May-01 18:33S 36°50' E 174°56'3 2.8
2015-May-01 17:29S 36°53' E 174°54'2 0.2
2015-May-01 06:32S 36°51' E 174°54'3 2.8
2015-May-01 05:33S 36°50' E 174°57'1 0.8
2015-May-01 04:32S 36°50' E 174°56'1 0.7
2015-May-01 03:33S 36°50' E 174°57'1 0.3
2015-May-01 00:28S 36°50' E 174°56'1 0.2
2015-Apr-30 19:29S 36°50' E 174°57'0 0.0
2015-Apr-30 04:24S 36°50' E 174°56'1 0.1
2015-Apr-29 21:33S 36°50' E 174°57'3 3.2
2015-Apr-29 20:33S 36°51' E 174°53'3 3.1
2015-Apr-29 19:33S 36°50' E 174°57'3 2.6
2015-Apr-29 18:33S 36°51' E 174°54'2 1.3
2015-Apr-29 17:24S 36°50' E 174°56'3 3.4
2015-Apr-29 16:32S 36°53' E 174°54'0 0.0
2015-Apr-29 15:29S 36°53' E 174°54'0 0.0
2015-Apr-29 14:32S 36°53' E 174°54'0 0.0
2015-Apr-29 13:29S 36°53' E 174°54'0 0.0
2015-Apr-29 12:32S 36°53' E 174°54'0 0.0
2015-Apr-29 10:32S 36°53' E 174°54'0 0.0
2015-Apr-29 09:29S 36°53' E 174°54'0 0.0
2015-Apr-29 08:31S 36°53' E 174°54'0 0.0
2015-Apr-29 07:28S 36°53' E 174°54'2 1.9
2015-Apr-29 06:33S 36°51' E 174°54'0 0.1
2015-Apr-29 04:33S 36°51' E 174°54'4 3.9
2015-Apr-29 03:33S 36°50' E 174°58'4 3.0
2015-Apr-29 02:14S 36°52' E 174°54'2 1.3
2015-Apr-29 00:32S 36°51' E 174°56'1 0.2
2015-Apr-28 21:32S 36°50' E 174°57'3 2.6
2015-Apr-28 20:33S 36°51' E 174°53'4 3.9
2015-Apr-28 19:33S 36°50' E 174°58'4 3.8
2015-Apr-28 18:34S 36°51' E 174°54'2 1.7
2015-Apr-28 17:26S 36°50' E 174°56'3 3.1
2015-Apr-28 16:28S 36°53' E 174°54'0 0.0
2015-Apr-28 15:28S 36°53' E 174°54'0 0.0
2015-Apr-28 14:31S 36°53' E 174°54'0 0.0
2015-Apr-28 13:31S 36°53' E 174°54'0 0.0
2015-Apr-28 12:22S 36°53' E 174°54'0 0.0
2015-Apr-28 10:25S 36°53' E 174°54'0 0.0
2015-Apr-28 09:28S 36°53' E 174°54'0 0.0
2015-Apr-28 08:31S 36°53' E 174°54'0 0.0
2015-Apr-28 07:31S 36°53' E 174°54'2 1.7
2015-Apr-28 06:33S 36°51' E 174°54'2 0.3
2015-Apr-28 00:25S 36°53' E 174°54'4 2.2
2015-Apr-27 22:33S 36°49' E 174°54'2 2.4
2015-Apr-27 21:33S 36°51' E 174°53'5 2.5
2015-Apr-27 19:33S 36°50' E 174°59'5 4.8
2015-Apr-27 18:34S 36°51' E 174°54'4 3.8
2015-Apr-27 17:32S 36°50' E 174°58'4 4.6
2015-Apr-27 16:33S 36°53' E 174°54'0 0.0
2015-Apr-27 15:27S 36°53' E 174°54'0 0.0
2015-Apr-27 13:33S 36°53' E 174°54'0 0.0
2015-Apr-27 12:33S 36°53' E 174°54'0 0.0
2015-Apr-27 11:33S 36°53' E 174°54'0 0.0
2015-Apr-27 10:33S 36°53' E 174°54'0 0.0
2015-Apr-27 09:33S 36°53' E 174°54'0 0.0
2015-Apr-27 07:33S 36°53' E 174°54'0 0.0
2015-Apr-27 06:24S 36°53' E 174°54'7 3.7
2015-Apr-27 04:28S 36°49' E 175°01'7 5.6
2015-Apr-27 03:16S 36°52' E 174°54'4 2.1
2015-Apr-27 01:33S 36°51' E 174°58'4 2.6
2015-Apr-27 00:09S 36°52' E 174°54'6 3.4
2015-Apr-26 22:27S 36°49' E 175°00'11 0.7
2015-Apr-26 06:22S 36°50' E 174°47'6 3.3
2015-Apr-26 04:33S 36°49' E 174°54'7 7.1
2015-Apr-26 03:33S 36°50' E 174°45'6 3.0
2015-Apr-26 01:29S 36°49' E 174°53'6 6.4
2015-Apr-26 00:31S 36°50' E 174°45'3 0.2
2015-Apr-25 06:11S 36°50' E 174°49'4 2.3
2015-Apr-25 04:33S 36°49' E 174°54'7 7.1
2015-Apr-25 03:33S 36°50' E 174°45'6 2.9
2015-Apr-25 01:29S 36°49' E 174°53'6 5.5
2015-Apr-25 00:26S 36°50' E 174°46'11 5.7
2015-Apr-24 22:30S 36°50' E 174°59'1111.8
2015-Apr-24 21:33S 36°50' E 174°45'  
Track history (hours):
 
Tides and Currents Weather Stations Pressure Air Temp Water Temp Dewpoint Dewpoint Depression Visibility Wind Speed Wind Dir Waves Ship Positions

Seaway II

Last reported at 2015-May-04 19:34 UTC. Time now 2015-May-04 20:08 UTC.
Position S 36°50' E 174°57'.

Length 37 m.

Type: Passenger vessel. MMSI: 512001026.

Date/timePositionNaut miles runAvg speedWind from/ knotsBaromVisibWave heightAir tempDewpointWater temp
2015-May-04 19:34S 36°50' E 174°57'0 0.1
2015-May-04 17:32S 36°50' E 174°57'4 0.6
2015-May-04 11:19S 36°53' E 174°54'0 0.0
2015-May-04 10:29S 36°53' E 174°54'0 0.0
2015-May-04 08:17S 36°53' E 174°54'0 0.0
2015-May-04 07:23S 36°53' E 174°54'1 1.7
2015-May-04 06:33S 36°51' E 174°54'3 3.0
2015-May-04 05:32S 36°50' E 174°57'3 0.9
2015-May-04 02:10S 36°52' E 174°54'0 0.0
2015-May-03 23:11S 36°52' E 174°54'2 1.3
2015-May-03 21:31S 36°50' E 174°56'2 0.8
2015-May-03 19:33S 36°50' E 174°58'4 3.6
2015-May-03 18:33S 36°51' E 174°53'3 3.4
2015-May-03 17:33S 36°50' E 174°57'4 4.0
2015-May-03 16:32S 36°53' E 174°54'0 0.0
2015-May-03 15:32S 36°53' E 174°54'0 0.0
2015-May-03 14:32S 36°53' E 174°54'0 0.0
2015-May-03 13:32S 36°53' E 174°54'0 0.0
2015-May-03 12:32S 36°53' E 174°54'0 0.0
2015-May-03 11:32S 36°53' E 174°54'0 0.0
2015-May-03 10:32S 36°53' E 174°54'0 0.0
2015-May-03 09:32S 36°53' E 174°54'0 0.0
2015-May-03 08:23S 36°53' E 174°54'0 0.0
2015-May-03 07:29S 36°53' E 174°54'0 0.0
2015-May-03 06:29S 36°53' E 174°54'0 0.0
2015-May-03 05:20S 36°53' E 174°54'4 2.4
2015-May-03 03:33S 36°50' E 174°58'4 4.0
2015-May-03 02:30S 36°53' E 174°54'4 2.0
2015-May-03 00:32S 36°50' E 174°57'4 4.0
2015-May-02 23:32S 36°53' E 174°54'4 2.2
2015-May-02 21:33S 36°50' E 174°58'4 3.9
2015-May-02 20:28S 36°53' E 174°54'2 1.2
2015-May-02 18:33S 36°50' E 174°54'2 2.3
2015-May-02 17:31S 36°53' E 174°54'0 0.0
2015-May-02 16:31S 36°53' E 174°54'0 0.0
2015-May-02 15:25S 36°53' E 174°54'0 0.0
2015-May-02 14:31S 36°53' E 174°54'0 0.0
2015-May-02 13:31S 36°53' E 174°54'0 0.0
2015-May-02 12:31S 36°53' E 174°54'0 0.0
2015-May-02 11:25S 36°53' E 174°54'0 0.0
2015-May-02 10:31S 36°53' E 174°54'0 0.0
2015-May-02 09:31S 36°53' E 174°54'0 0.0
2015-May-02 08:17S 36°53' E 174°54'0 0.0
2015-May-02 07:32S 36°53' E 174°54'1 0.1
2015-May-01 23:14S 36°52' E 174°54'1 0.7
2015-May-01 21:21S 36°51' E 174°54'1 1.4
2015-May-01 20:16S 36°52' E 174°54'2 1.4
2015-May-01 18:33S 36°50' E 174°56'3 2.8
2015-May-01 17:29S 36°53' E 174°54'2 0.2
2015-May-01 06:32S 36°51' E 174°54'3 2.8
2015-May-01 05:33S 36°50' E 174°57'1 0.8
2015-May-01 04:32S 36°50' E 174°56'1 0.7
2015-May-01 03:33S 36°50' E 174°57'1 0.3
2015-May-01 00:28S 36°50' E 174°56'1 0.2
2015-Apr-30 19:29S 36°50' E 174°57'0 0.0
2015-Apr-30 04:24S 36°50' E 174°56'1 0.1
2015-Apr-29 21:33S 36°50' E 174°57'3 3.2
2015-Apr-29 20:33S 36°51' E 174°53'3 3.1
2015-Apr-29 19:33S 36°50' E 174°57'3 2.6
2015-Apr-29 18:33S 36°51' E 174°54'2 1.3
2015-Apr-29 17:24S 36°50' E 174°56'3 3.4
2015-Apr-29 16:32S 36°53' E 174°54'0 0.0
2015-Apr-29 15:29S 36°53' E 174°54'0 0.0
2015-Apr-29 14:32S 36°53' E 174°54'0 0.0
2015-Apr-29 13:29S 36°53' E 174°54'0 0.0
2015-Apr-29 12:32S 36°53' E 174°54'0 0.0
2015-Apr-29 10:32S 36°53' E 174°54'0 0.0
2015-Apr-29 09:29S 36°53' E 174°54'0 0.0
2015-Apr-29 08:31S 36°53' E 174°54'0 0.0
2015-Apr-29 07:28S 36°53' E 174°54'2 1.9
2015-Apr-29 06:33S 36°51' E 174°54'0 0.1
2015-Apr-29 04:33S 36°51' E 174°54'4 3.9
2015-Apr-29 03:33S 36°50' E 174°58'4 3.0
2015-Apr-29 02:14S 36°52' E 174°54'2 1.3
2015-Apr-29 00:32S 36°51' E 174°56'1 0.2
2015-Apr-28 21:32S 36°50' E 174°57'3 2.6
2015-Apr-28 20:33S 36°51' E 174°53'4 3.9
2015-Apr-28 19:33S 36°50' E 174°58'4 3.8
2015-Apr-28 18:34S 36°51' E 174°54'2 1.7
2015-Apr-28 17:26S 36°50' E 174°56'3 3.1
2015-Apr-28 16:28S 36°53' E 174°54'0 0.0
2015-Apr-28 15:28S 36°53' E 174°54'0 0.0
2015-Apr-28 14:31S 36°53' E 174°54'0 0.0
2015-Apr-28 13:31S 36°53' E 174°54'0 0.0
2015-Apr-28 12:22S 36°53' E 174°54'0 0.0
2015-Apr-28 10:25S 36°53' E 174°54'0 0.0
2015-Apr-28 09:28S 36°53' E 174°54'0 0.0
2015-Apr-28 08:31S 36°53' E 174°54'0 0.0
2015-Apr-28 07:31S 36°53' E 174°54'2 1.7
2015-Apr-28 06:33S 36°51' E 174°54'2 0.3
2015-Apr-28 00:25S 36°53' E 174°54'4 2.2
2015-Apr-27 22:33S 36°49' E 174°54'2 2.4
2015-Apr-27 21:33S 36°51' E 174°53'5 2.5
2015-Apr-27 19:33S 36°50' E 174°59'5 4.8
2015-Apr-27 18:34S 36°51' E 174°54'4 3.8
2015-Apr-27 17:32S 36°50' E 174°58'4 4.6
2015-Apr-27 16:33S 36°53' E 174°54'0 0.0
2015-Apr-27 15:27S 36°53' E 174°54'0 0.0
2015-Apr-27 13:33S 36°53' E 174°54'0 0.0
2015-Apr-27 12:33S 36°53' E 174°54'0 0.0
2015-Apr-27 11:33S 36°53' E 174°54'0 0.0
2015-Apr-27 10:33S 36°53' E 174°54'0 0.0
2015-Apr-27 09:33S 36°53' E 174°54'0 0.0
2015-Apr-27 07:33S 36°53' E 174°54'0 0.0
2015-Apr-27 06:24S 36°53' E 174°54'7 3.7
2015-Apr-27 04:28S 36°49' E 175°01'7 5.6
2015-Apr-27 03:16S 36°52' E 174°54'4 2.1
2015-Apr-27 01:33S 36°51' E 174°58'4 2.6
2015-Apr-27 00:09S 36°52' E 174°54'6 3.4
2015-Apr-26 22:27S 36°49' E 175°00'11 0.7
2015-Apr-26 06:22S 36°50' E 174°47'6 3.3
2015-Apr-26 04:33S 36°49' E 174°54'7 7.1
2015-Apr-26 03:33S 36°50' E 174°45'6 3.0
2015-Apr-26 01:29S 36°49' E 174°53'6 6.4
2015-Apr-26 00:31S 36°50' E 174°45'3 0.2
2015-Apr-25 06:11S 36°50' E 174°49'4 2.3
2015-Apr-25 04:33S 36°49' E 174°54'7 7.1
2015-Apr-25 03:33S 36°50' E 174°45'6 2.9
2015-Apr-25 01:29S 36°49' E 174°53'6 5.5
2015-Apr-25 00:26S 36°50' E 174°46'11 5.7
2015-Apr-24 22:30S 36°50' E 174°59'1111.8
2015-Apr-24 21:33S 36°50' E 174°45'  

Dump ship's entire track history